createdAt,value
2019-01-25T00:00:02.456Z,33.10
2019-01-25T00:02:50.899Z,35.52
2019-01-25T00:05:40.175Z,45.25
2019-01-25T00:08:28.656Z,38.38
2019-01-25T00:11:17.799Z,35.08
2019-01-25T00:14:08.575Z,41.92
2019-01-25T00:16:57.371Z,34.27
2019-01-25T00:19:46.418Z,39.55
2019-01-25T00:22:35.896Z,32.98
2019-01-25T00:25:25.101Z,41.65
2019-01-25T00:28:14.157Z,39.95
2019-01-25T00:31:03.222Z,49.48
2019-01-25T00:33:51.753Z,49.00
2019-01-25T00:36:40.857Z,41.08
2019-01-25T00:39:29.838Z,38.95
2019-01-25T00:42:19.011Z,44.75
2019-01-25T00:45:10.370Z,44.90
2019-01-25T00:47:59.576Z,49.40
2019-01-25T00:50:48.562Z,41.70
2019-01-25T00:53:37.578Z,39.35
2019-01-25T00:56:26.883Z,58.38
2019-01-25T00:59:15.757Z,42.88
2019-01-25T01:02:05.135Z,47.20
2019-01-25T01:04:53.962Z,36.93
2019-01-25T01:07:43.195Z,42.20
2019-01-25T01:10:32.219Z,42.35
2019-01-25T01:13:21.241Z,41.15
2019-01-25T01:16:11.499Z,34.48
2019-01-25T01:19:00.423Z,39.45
2019-01-25T01:21:48.877Z,31.48
2019-01-25T01:24:37.786Z,40.08
2019-01-25T01:27:26.405Z,31.73
2019-01-25T01:30:19.998Z,36.30
2019-01-25T01:33:08.595Z,34.33
2019-01-25T01:35:57.628Z,44.58
2019-01-25T01:38:46.756Z,34.92
2019-01-25T01:41:35.810Z,35.98
2019-01-25T01:44:25.062Z,34.33
2019-01-25T01:47:14.230Z,36.53
2019-01-25T01:50:04.610Z,31.25
2019-01-25T01:52:53.678Z,34.60
2019-01-25T01:55:42.085Z,37.10
2019-01-25T01:58:30.886Z,34.55
2019-01-25T02:01:19.926Z,34.80
2019-01-25T02:04:09.027Z,37.40
2019-01-25T02:06:58.156Z,31.62
2019-01-25T02:09:47.514Z,33.55
2019-01-25T02:12:36.596Z,34.27
2019-01-25T02:15:25.270Z,33.60
2019-01-25T02:18:13.949Z,40.90
2019-01-25T02:21:03.615Z,35.70
2019-01-25T02:23:52.308Z,33.42
2019-01-25T02:26:41.404Z,29.02
2019-01-25T02:29:30.050Z,31.12
2019-01-25T02:32:18.814Z,38.30
2019-01-25T02:35:09.206Z,36.40
2019-01-25T02:37:58.257Z,40.35
2019-01-25T02:40:47.198Z,37.60
2019-01-25T02:43:36.200Z,40.17
2019-01-25T02:46:25.135Z,37.30
2019-01-25T02:49:13.909Z,42.05
2019-01-25T02:52:03.064Z,39.50
2019-01-25T02:54:51.864Z,36.55
2019-01-25T02:57:40.554Z,40.03
2019-01-25T03:00:29.206Z,41.90
2019-01-25T03:03:18.354Z,38.23
2019-01-25T03:06:07.030Z,45.03
2019-01-25T03:08:56.104Z,39.10
2019-01-25T03:11:44.827Z,39.15
2019-01-25T03:14:33.681Z,37.88
2019-01-25T03:17:22.557Z,36.00
2019-01-25T03:20:14.873Z,45.80
2019-01-25T03:23:03.531Z,40.28
2019-01-25T03:25:52.608Z,38.33
2019-01-25T03:28:41.522Z,36.50
2019-01-25T03:31:30.161Z,34.03
2019-01-25T03:34:18.896Z,38.75
2019-01-25T03:37:07.517Z,40.70
2019-01-25T03:39:56.019Z,46.42
2019-01-25T03:42:44.623Z,42.08
2019-01-25T03:45:33.555Z,43.85
2019-01-25T03:48:22.686Z,42.98
2019-01-25T03:51:11.652Z,41.20
2019-01-25T03:54:00.259Z,37.05
2019-01-25T03:56:49.376Z,36.88
2019-01-25T03:59:38.270Z,39.65
2019-01-25T04:02:27.464Z,33.02
2019-01-25T04:05:17.122Z,39.23
2019-01-25T04:08:06.773Z,38.42
2019-01-25T04:11:03.071Z,39.98
2019-01-25T04:13:46.327Z,34.38
2019-01-25T04:16:34.814Z,38.45
2019-01-25T04:19:23.995Z,35.03
2019-01-25T04:22:12.902Z,36.50
2019-01-25T04:25:01.892Z,36.58
2019-01-25T04:27:51.976Z,40.95
2019-01-25T04:30:41.173Z,36.77
2019-01-25T04:33:30.328Z,38.28
2019-01-25T04:36:19.498Z,44.40
2019-01-25T04:39:09.233Z,40.35
2019-01-25T04:41:57.890Z,40.03
2019-01-25T04:44:46.403Z,40.33
2019-01-25T04:47:35.235Z,38.00
2019-01-25T04:50:25.061Z,36.70
2019-01-25T04:53:13.535Z,40.65
2019-01-25T04:56:02.597Z,37.60
2019-01-25T04:58:50.919Z,40.55
2019-01-25T05:01:40.004Z,38.25
2019-01-25T05:04:35.384Z,39.50
2019-01-25T05:07:24.228Z,44.53
2019-01-25T05:10:13.226Z,37.33
2019-01-25T05:13:01.740Z,46.08
2019-01-25T05:15:50.956Z,37.45
2019-01-25T05:18:39.845Z,35.65
2019-01-25T05:21:28.621Z,36.88
2019-01-25T05:24:17.450Z,38.28
2019-01-25T05:27:06.392Z,39.13
2019-01-25T05:29:55.702Z,38.70
2019-01-25T05:32:44.462Z,39.60
2019-01-25T05:35:37.793Z,41.65
2019-01-25T05:38:26.474Z,36.88
2019-01-25T05:41:16.006Z,37.98
2019-01-25T05:44:04.808Z,41.00
2019-01-25T05:46:53.775Z,37.20
2019-01-25T05:49:42.617Z,41.23
2019-01-25T05:52:31.660Z,38.70
2019-01-25T05:55:22.610Z,41.50
2019-01-25T05:58:12.342Z,41.63
2019-01-25T06:01:01.228Z,36.90
2019-01-25T06:03:50.519Z,39.58
2019-01-25T06:06:39.805Z,39.63
2019-01-25T06:09:28.794Z,39.00
2019-01-25T06:12:17.428Z,38.33
2019-01-25T06:15:12.924Z,38.95
2019-01-25T06:18:06.394Z,38.40
2019-01-25T06:20:57.782Z,38.00
2019-01-25T06:23:46.641Z,37.50
2019-01-25T06:26:35.938Z,39.20
2019-01-25T06:29:24.859Z,39.03
2019-01-25T06:32:14.270Z,36.68
2019-01-25T06:35:03.721Z,37.55
2019-01-25T06:37:52.168Z,39.40
2019-01-25T06:40:41.242Z,36.10
2019-01-25T06:43:31.291Z,34.88
2019-01-25T06:46:20.026Z,37.05
2019-01-25T06:49:08.626Z,35.58
2019-01-25T06:51:57.544Z,38.15
2019-01-25T06:54:45.837Z,36.83
2019-01-25T06:57:36.388Z,40.12
2019-01-25T07:00:29.829Z,39.67
2019-01-25T07:03:18.339Z,39.85
2019-01-25T07:06:07.452Z,41.45
2019-01-25T07:08:55.747Z,43.00
2019-01-25T07:11:51.285Z,40.70
2019-01-25T07:14:35.104Z,41.55
2019-01-25T07:17:24.099Z,43.48
2019-01-25T07:20:16.484Z,39.83
2019-01-25T07:23:05.100Z,38.78
2019-01-25T07:25:53.803Z,42.50
2019-01-25T07:28:42.403Z,47.00
2019-01-25T07:31:31.462Z,36.45
2019-01-25T07:34:19.732Z,32.55
2019-01-25T07:37:08.782Z,38.70
2019-01-25T07:39:57.444Z,31.37
2019-01-25T07:42:45.836Z,35.45
2019-01-25T07:45:34.673Z,32.35
2019-01-25T07:48:23.106Z,30.88
2019-01-25T07:51:11.406Z,27.22
2019-01-25T07:54:00.277Z,38.28
2019-01-25T07:56:49.320Z,31.55
2019-01-25T07:59:38.062Z,32.33
2019-01-25T08:02:27.301Z,29.55
2019-01-25T08:05:16.446Z,32.70
2019-01-25T08:08:05.615Z,33.48
2019-01-25T08:10:54.443Z,30.95
2019-01-25T08:13:43.102Z,35.43
2019-01-25T08:16:31.894Z,28.50
2019-01-25T08:19:20.988Z,33.23
2019-01-25T08:22:10.098Z,29.87
2019-01-25T08:24:59.322Z,35.20
2019-01-25T08:27:48.786Z,34.92
2019-01-25T08:30:38.116Z,27.50
2019-01-25T08:33:27.305Z,30.30
2019-01-25T08:36:16.034Z,32.78
2019-01-25T08:39:07.293Z,34.63
2019-01-25T08:41:56.018Z,31.52
2019-01-25T08:44:45.214Z,33.28
2019-01-25T08:47:34.131Z,30.45
2019-01-25T08:50:27.707Z,34.55
2019-01-25T08:53:16.465Z,30.90
2019-01-25T08:56:05.070Z,26.12
2019-01-25T08:58:54.238Z,33.28
2019-01-25T09:01:43.276Z,30.50
2019-01-25T09:04:32.209Z,27.87
2019-01-25T09:07:21.361Z,32.17
2019-01-25T09:10:14.460Z,31.80
2019-01-25T09:13:03.330Z,29.45
2019-01-25T09:15:52.574Z,29.63
2019-01-25T09:18:41.559Z,34.23
2019-01-25T09:21:30.536Z,33.42
2019-01-25T09:24:18.791Z,30.52
2019-01-25T09:27:07.722Z,32.08
2019-01-25T09:29:56.470Z,28.95
2019-01-25T09:32:44.872Z,28.30
2019-01-25T09:35:33.770Z,25.05
2019-01-25T09:38:22.865Z,30.82
2019-01-25T09:41:11.839Z,29.15
2019-01-25T09:44:00.222Z,33.83
2019-01-25T09:46:49.232Z,27.15
2019-01-25T09:49:37.466Z,27.98
2019-01-25T09:52:26.178Z,30.05
2019-01-25T09:55:24.274Z,28.73
2019-01-25T09:58:17.921Z,27.35
2019-01-25T10:01:07.920Z,28.00
2019-01-25T10:03:56.706Z,35.48
2019-01-25T10:06:45.856Z,24.65
2019-01-25T10:09:34.627Z,32.60
2019-01-25T10:12:23.596Z,29.60
2019-01-25T10:15:25.941Z,28.35
2019-01-25T10:18:14.922Z,27.93
2019-01-25T10:21:03.983Z,26.57
2019-01-25T10:23:53.226Z,26.42
2019-01-25T10:26:42.325Z,26.42
2019-01-25T10:29:30.794Z,27.45
2019-01-25T10:32:20.038Z,24.05
2019-01-25T10:35:11.502Z,30.85
2019-01-25T10:38:00.438Z,31.48
2019-01-25T10:40:49.328Z,28.47
2019-01-25T10:43:37.797Z,29.37
2019-01-25T10:46:26.584Z,27.90
2019-01-25T10:49:15.277Z,30.43
2019-01-25T10:52:04.116Z,35.03
2019-01-25T10:54:52.986Z,30.62
2019-01-25T10:57:41.384Z,28.38
2019-01-25T11:00:30.881Z,33.18
2019-01-25T11:03:20.154Z,31.55
2019-01-25T11:06:08.477Z,35.43
2019-01-25T11:08:57.472Z,32.23
2019-01-25T11:11:46.130Z,34.53
2019-01-25T11:14:35.288Z,32.08
2019-01-25T11:17:24.366Z,32.73
2019-01-25T11:20:22.534Z,37.60
2019-01-25T11:23:11.538Z,44.90
2019-01-25T11:26:00.250Z,43.83
2019-01-25T11:28:49.074Z,39.10
2019-01-25T11:31:38.038Z,38.48
2019-01-25T11:34:26.577Z,40.55
2019-01-25T11:37:15.686Z,46.80
2019-01-25T11:40:15.529Z,32.67
2019-01-25T11:43:08.889Z,39.92
2019-01-25T11:45:55.608Z,32.15
2019-01-25T11:48:44.758Z,35.13
2019-01-25T11:51:33.918Z,32.08
2019-01-25T11:54:23.060Z,37.70
2019-01-25T11:57:11.424Z,33.75
2019-01-25T12:00:00.257Z,38.88
2019-01-25T12:02:49.603Z,44.33
2019-01-25T12:05:38.467Z,34.70
2019-01-25T12:08:27.410Z,37.85
2019-01-25T12:11:15.996Z,37.42
2019-01-25T12:14:07.050Z,36.53
2019-01-25T12:16:56.074Z,34.80
2019-01-25T12:19:45.354Z,36.23
2019-01-25T12:22:34.556Z,40.38
2019-01-25T12:25:23.307Z,40.88
2019-01-25T12:28:12.329Z,33.92
2019-01-25T12:31:00.973Z,39.23
2019-01-25T12:33:49.765Z,35.05
2019-01-25T12:36:38.433Z,42.75
2019-01-25T12:39:27.521Z,40.65
2019-01-25T12:42:16.432Z,47.73
2019-01-25T12:45:09.393Z,45.03
2019-01-25T12:47:58.122Z,50.15
2019-01-25T12:50:54.149Z,42.73
2019-01-25T12:53:43.408Z,46.70
2019-01-25T12:56:32.279Z,50.12
2019-01-25T12:59:21.611Z,45.45
2019-01-25T13:02:10.241Z,51.60
2019-01-25T13:04:59.262Z,50.30
2019-01-25T13:07:47.942Z,53.15
2019-01-25T13:10:37.204Z,50.33
2019-01-25T13:13:31.527Z,53.42
2019-01-25T13:16:16.810Z,43.28
2019-01-25T13:19:05.585Z,50.95
2019-01-25T13:21:54.473Z,51.23
2019-01-25T13:24:43.329Z,48.05
2019-01-25T13:27:32.070Z,41.75
2019-01-25T13:30:29.899Z,59.93
2019-01-25T13:33:18.578Z,46.83
2019-01-25T13:36:09.922Z,40.83
2019-01-25T13:38:59.089Z,50.58
2019-01-25T13:41:48.133Z,49.42
2019-01-25T13:44:37.298Z,44.75
2019-01-25T13:47:26.123Z,63.87
2019-01-25T13:50:25.207Z,54.98
2019-01-25T13:53:14.268Z,50.08
2019-01-25T13:56:02.949Z,56.23
2019-01-25T13:58:52.011Z,57.30
2019-01-25T14:01:41.227Z,48.87
2019-01-25T14:04:30.230Z,56.42
2019-01-25T14:07:21.090Z,52.67
2019-01-25T14:10:22.522Z,56.63
2019-01-25T14:13:11.486Z,54.03
2019-01-25T14:16:00.479Z,56.20
2019-01-25T14:18:49.449Z,56.60
2019-01-25T14:21:38.797Z,62.50
2019-01-25T14:24:27.206Z,73.15
2019-01-25T14:27:16.488Z,58.52
2019-01-25T14:30:24.175Z,58.42
2019-01-25T14:33:13.000Z,69.80
2019-01-25T14:36:01.593Z,61.02
2019-01-25T14:38:50.732Z,64.75
2019-01-25T14:41:39.418Z,62.55
2019-01-25T14:44:28.590Z,64.32
2019-01-25T14:47:17.355Z,66.80
2019-01-25T14:50:16.518Z,68.83
2019-01-25T14:53:06.133Z,63.80
2019-01-25T14:55:54.580Z,68.70
2019-01-25T14:58:43.573Z,72.92
2019-01-25T15:01:32.914Z,69.42
2019-01-25T15:04:21.970Z,71.53
2019-01-25T15:07:10.941Z,67.08
2019-01-25T15:10:00.231Z,63.23
2019-01-25T15:12:50.010Z,74.45
2019-01-25T15:15:38.788Z,67.45
2019-01-25T15:18:27.403Z,65.67
2019-01-25T15:21:16.278Z,76.33
2019-01-25T15:24:05.232Z,69.53
2019-01-25T15:26:54.704Z,68.12
2019-01-25T15:29:43.119Z,69.40
2019-01-25T15:32:31.973Z,64.20
2019-01-25T15:35:22.140Z,88.67
2019-01-25T15:38:10.857Z,73.92
2019-01-25T15:40:59.459Z,83.22
2019-01-25T15:43:48.204Z,58.60
2019-01-25T15:46:36.462Z,65.50
2019-01-25T15:49:25.628Z,64.25
2019-01-25T15:52:14.391Z,59.58
2019-01-25T15:55:04.479Z,63.35
2019-01-25T15:57:53.633Z,56.95
2019-01-25T16:00:42.262Z,57.00
2019-01-25T16:03:31.224Z,55.80
2019-01-25T16:06:20.138Z,55.73
2019-01-25T16:09:14.131Z,47.50
2019-01-25T16:12:00.165Z,56.73
2019-01-25T16:14:48.647Z,50.50
2019-01-25T16:17:37.654Z,55.95
2019-01-25T16:20:26.877Z,47.93
2019-01-25T16:23:15.968Z,52.43
2019-01-25T16:26:04.973Z,51.65
2019-01-25T16:28:54.165Z,48.70
2019-01-25T16:31:42.802Z,52.40
2019-01-25T16:34:31.598Z,49.10
2019-01-25T16:37:20.587Z,51.45
2019-01-25T16:40:28.000Z,53.85
2019-01-25T16:43:16.519Z,52.48
2019-01-25T16:46:05.389Z,45.38
2019-01-25T16:48:54.820Z,54.80
2019-01-25T16:51:43.984Z,47.80
2019-01-25T16:54:32.623Z,51.98
2019-01-25T16:57:21.615Z,50.67
2019-01-25T17:00:31.901Z,50.35
2019-01-25T17:03:20.706Z,47.98
2019-01-25T17:06:10.068Z,57.05
2019-01-25T17:08:59.244Z,50.30
2019-01-25T17:11:47.551Z,54.13
2019-01-25T17:14:36.719Z,55.45
2019-01-25T17:17:25.916Z,52.55
2019-01-25T17:20:21.473Z,60.40
2019-01-25T17:23:10.392Z,54.58
2019-01-25T17:25:59.116Z,51.25
2019-01-25T17:28:48.170Z,47.55
2019-01-25T17:31:37.222Z,57.70
2019-01-25T17:34:26.297Z,54.45
2019-01-25T17:37:14.906Z,57.73
2019-01-25T17:40:05.531Z,55.52
2019-01-25T17:42:54.957Z,53.38
2019-01-25T17:45:44.284Z,50.05
2019-01-25T17:48:33.192Z,50.48
2019-01-25T17:51:22.066Z,51.63
2019-01-25T17:54:11.034Z,54.05
2019-01-25T17:57:00.311Z,55.98
2019-01-25T17:59:48.965Z,50.92
2019-01-25T18:02:38.316Z,52.25
2019-01-25T18:05:27.263Z,51.65
2019-01-25T18:08:16.281Z,49.65
2019-01-25T18:11:05.466Z,55.10
2019-01-25T18:13:54.574Z,54.55
2019-01-25T18:16:43.017Z,54.25
2019-01-25T18:19:31.675Z,49.10
2019-01-25T18:22:20.102Z,53.05
2019-01-25T18:25:16.796Z,46.65
2019-01-25T18:28:18.854Z,46.33
2019-01-25T18:31:18.930Z,52.83
2019-01-25T18:34:07.919Z,56.33
2019-01-25T18:36:56.831Z,51.30
2019-01-25T18:39:45.357Z,44.35
2019-01-25T18:42:34.359Z,54.00
2019-01-25T18:45:23.531Z,46.75
2019-01-25T18:48:12.776Z,47.35
2019-01-25T18:51:01.999Z,48.20
2019-01-25T18:53:51.172Z,48.25
2019-01-25T18:56:40.236Z,49.93
2019-01-25T18:59:29.350Z,48.63
2019-01-25T19:02:20.139Z,44.27
2019-01-25T19:05:10.448Z,46.35
2019-01-25T19:07:59.681Z,49.05
2019-01-25T19:10:48.258Z,43.02
2019-01-25T19:13:36.626Z,48.68
2019-01-25T19:16:25.620Z,46.05
2019-01-25T19:19:13.951Z,52.45
2019-01-25T19:22:02.892Z,52.58
2019-01-25T19:24:51.788Z,50.65
2019-01-25T19:27:40.936Z,52.83
2019-01-25T19:30:36.591Z,42.98
2019-01-25T19:33:25.648Z,46.68
2019-01-25T19:36:14.661Z,53.65
2019-01-25T19:39:05.199Z,55.10
2019-01-25T19:41:54.536Z,55.10
2019-01-25T19:44:43.362Z,49.75
2019-01-25T19:47:31.689Z,52.85
2019-01-25T19:50:21.770Z,50.20
2019-01-25T19:53:10.274Z,50.03
2019-01-25T19:55:59.080Z,50.28
2019-01-25T19:58:48.705Z,50.70
2019-01-25T20:01:38.088Z,49.08
2019-01-25T20:04:27.010Z,53.48
2019-01-25T20:07:16.142Z,53.90
2019-01-25T20:10:09.206Z,52.98
2019-01-25T20:12:57.743Z,53.87
2019-01-25T20:15:46.803Z,50.20
2019-01-25T20:18:35.954Z,55.15
2019-01-25T20:21:25.200Z,63.73
2019-01-25T20:24:14.470Z,59.53
2019-01-25T20:27:03.712Z,55.15
2019-01-25T20:29:52.575Z,63.40
2019-01-25T20:32:41.416Z,53.80
2019-01-25T20:35:44.180Z,57.40
2019-01-25T20:38:32.516Z,63.33
2019-01-25T20:41:20.941Z,58.15
2019-01-25T20:44:09.892Z,59.40
2019-01-25T20:46:59.295Z,68.62
2019-01-25T20:49:48.669Z,60.75
2019-01-25T20:52:37.567Z,70.03
2019-01-25T20:55:26.533Z,72.47
2019-01-25T20:58:15.631Z,71.55
2019-01-25T21:01:04.265Z,66.92
2019-01-25T21:03:53.817Z,61.65
2019-01-25T21:06:42.175Z,67.60
2019-01-25T21:09:31.090Z,67.08
2019-01-25T21:12:20.230Z,64.35
2019-01-25T21:15:13.225Z,74.40
2019-01-25T21:18:02.644Z,66.17
2019-01-25T21:20:50.914Z,71.47
2019-01-25T21:23:39.492Z,68.10
2019-01-25T21:26:28.367Z,75.87
2019-01-25T21:29:17.777Z,61.45
2019-01-25T21:32:06.874Z,71.00
2019-01-25T21:34:55.286Z,67.92
2019-01-25T21:37:44.545Z,74.12
2019-01-25T21:40:35.285Z,72.15
2019-01-25T21:43:24.303Z,69.22
2019-01-25T21:46:13.130Z,66.57
2019-01-25T21:49:02.127Z,65.83
2019-01-25T21:51:51.026Z,71.47
2019-01-25T21:54:39.852Z,65.37
2019-01-25T21:57:28.984Z,63.80
2019-01-25T22:00:31.000Z,67.95
2019-01-25T22:03:19.490Z,71.77
2019-01-25T22:06:08.630Z,62.10
2019-01-25T22:08:58.020Z,70.85
2019-01-25T22:11:46.756Z,71.97
2019-01-25T22:14:35.310Z,72.03
2019-01-25T22:17:23.885Z,69.50
2019-01-25T22:20:16.938Z,63.08
2019-01-25T22:23:06.559Z,66.55
2019-01-25T22:25:55.570Z,75.35
2019-01-25T22:28:44.735Z,62.73
2019-01-25T22:31:33.230Z,72.78
2019-01-25T22:34:22.464Z,65.32
2019-01-25T22:37:11.596Z,63.23
2019-01-25T22:40:00.373Z,67.92
2019-01-25T22:42:49.195Z,75.15
2019-01-25T22:45:37.827Z,66.97
2019-01-25T22:48:26.557Z,60.20
2019-01-25T22:51:15.627Z,70.40
2019-01-25T22:54:04.698Z,63.80
2019-01-25T22:56:54.185Z,79.15
2019-01-25T22:59:43.187Z,66.85
2019-01-25T23:02:31.839Z,68.42
2019-01-25T23:05:40.382Z,61.77
2019-01-25T23:08:28.887Z,56.68
2019-01-25T23:11:17.520Z,70.32
2019-01-25T23:14:10.387Z,75.45
2019-01-25T23:19:47.947Z,74.70
2019-01-25T23:28:12.742Z,59.70
